Terminal Aerodrome Forecast
Issued by NWS Nashville, TN

Home | Current Version | Previous Version | Text Only | Print | Product List | Glossary On
Versions: 1 2 3 4 5 6 7 8 9 10 11 12 13 14 15 16 17 18 19 20 21 22 23 24 25 26 27 28 29 30 31 32 33 34 35 36 37
727
FTUS44 KOHX 181205 AAA
TAFCSV
TAF AMD
KCSV 181205Z 1812/1912 31006KT P6SM OVC008
     FM181600 34005KT P6SM OVC025
     FM182000 VRB03KT P6SM BKN050 OVC100
     FM190700 00000KT 4SM BR OVC050=

USA.gov is the U.S. government's official web portal to all federal, state and local government web resources and services.